x

Ilm3 - 27 Miles Se Of Wrightsville Beach, Nc (41037) Weather Station

8:00am - Wed 17th Sep 2014 All times are EDT. -4 hours from GMT.

  • Wind
    20mph, 25mph gusts
  • Sea Temp 82°f
  • Air Temp 72°f
  • Sea Pressure 1013mb
  • Ilm3 - 27 Miles Se Of Wrightsville Beach, Nc
  • Ilm3 - 27 Miles Se Of Wrightsville Beach, Nc

More Historic Weather Station data

Upgrade to MSW Pro to gain access to the past 30 days of data for over 8000 Wavebouys and Weather Stations around the globe.

Join Pro

Comparision Forecast

View Surf forecast
   
Wed 09/17 8:00am 20 25 mph 1013mb 82f 72f
7:00am 18 20 mph 1012.6mb 82f 73f
6:00am 18 22 mph 1012.1mb 82f 72f
5:00am 11
mph
1012.1mb 82f 73f
4:00am 4 7 mph 1011.6mb 82f 75f
3:00am 20 22 mph 1012.5mb 82f 72f
2:00am 7 9 mph 1013.6mb 82f 76f
1:00am 2
mph
1013.8mb 82f 76f
12:00am 7
mph
1014.1mb 82f 76f
Tue 09/16 11:00pm 9 11 mph 1013.7mb 82f 76f
10:00pm 9 11 mph 1014.3mb 82f 76f
9:00pm 9
mph
1014.6mb 82f 76f
8:00pm 7 9 mph 1014.1mb 82f 76f
7:00pm 7 9 mph 1014mb 82f 76f
6:00pm 4 7 mph 1014.3mb 82f 76f
5:00pm 7 9 mph 1014.2mb 82f 76f
4:00pm 9
mph
1014.5mb 82f 75f
3:00pm 11 13 mph 1014.9mb 82f 75f
2:00pm 11 13 mph 1015.4mb 82f 75f
1:00pm 11 13 mph 1016.1mb 82f 74f
12:00pm 11 13 mph 1016.6mb 82f 74f
11:00am 7 9 mph 1017.1mb 82f 73f
10:00am 9 11 mph 1017.1mb 81f 73f
9:00am 13 18 mph 1016.8mb 82f 76f
8:00am 11 13 mph 1016.7mb 82f 76f
7:00am 13 16 mph 1016.7mb 82f 76f
6:00am 7 9 mph 1017.1mb 82f 76f
5:00am 7
mph
1016.9mb 82f 75f
4:00am 7
mph
1017.1mb 82f 74f
3:00am 4
mph
1017.7mb 82f 74f
2:00am 7
mph
1018.2mb 82f 74f
1:00am 4 7 mph 1019mb 82f 74f
12:00am 4
mph
1019.7mb 82f 74f
Mon 09/15 11:00pm 7 9 mph 1020mb 82f 74f
10:00pm 7
mph
1020mb 82f 74f
9:00pm 4 7 mph 1020mb 82f 74f
8:00pm 7 9 mph 1019.7mb 82f 74f
7:00pm 7 9 mph 1019.6mb 82f 74f
6:00pm 11 13 mph 1019.7mb 82f 74f
5:00pm 7 9 mph 1020.1mb 82f 74f
4:00pm 11 13 mph 1020.5mb 82f 74f
3:00pm 11 16 mph 1020.9mb 82f 73f
2:00pm 13 16 mph 1021.5mb 82f 73f
1:00pm 13 18 mph 1021.7mb 82f 73f
12:00pm 11 16 mph 1022mb 82f 73f
11:00am 16 18 mph 1022.1mb 82f 73f
10:00am 16 18 mph 1021.9mb 82f 73f
9:00am 11 13 mph 1022.3mb 82f 73f
8:00am 13 16 mph 1022.1mb 82f 73f
7:00am 13 16 mph 1021.9mb 82f 73f
6:00am 13 16 mph 1021.4mb 82f 73f
5:00am 13 16 mph 1021mb 82f 73f
4:00am 13 18 mph 1020.9mb 83f 73f
3:00am 11 13 mph 1021mb 83f 73f
2:00am 11 13 mph 1021.2mb 83f 73f
1:00am 16 18 mph 1021.1mb 83f 73f
12:00am 11 13 mph 1021.7mb 83f 73f
Sun 09/14 11:00pm 13 18 mph 1021.5mb 83f 73f
10:00pm 13 18 mph 1021.6mb 83f 73f
9:00pm 18 22 mph 1021.4mb 83f 73f
8:00pm 18 20 mph 1021.2mb 83f 74f
7:00pm 18 20 mph 1020.8mb 83f 74f
6:00pm 16 18 mph 1020.9mb 83f 73f
5:00pm 18 22 mph 1020.6mb 83f 74f
4:00pm 18 22 mph 1021.1mb 83f 74f
3:00pm 18 20 mph 1021.1mb 83f 74f
2:00pm 20 22 mph 1021.5mb 83f 74f
1:00pm 18 22 mph 1021.3mb 83f 73f
12:00pm 20 22 mph 1021.5mb 83f 73f
11:00am 22 27 mph 1021.8mb 82f 73f
10:00am 20 22 mph 1021.5mb 82f 73f
9:00am 20 22 mph 1021.2mb 82f 73f
8:00am 22 25 mph 1020.9mb 82f 73f
7:00am 18 22 mph 1020.9mb 82f 73f
6:00am 20 25 mph 1020mb 82f 73f
5:00am 16 18 mph 1019.4mb 82f 75f
4:00am 18 20 mph 1019.3mb 82f 75f
3:00am 18 20 mph 1019mb 82f 75f
2:00am 16 18 mph 1019mb 82f 76f
1:00am 9 11 mph 1019.4mb 83f 77f
12:00am 11 13 mph 1019.4mb 83f 77f
Sat 09/13 11:00pm 11 13 mph 1019.5mb 83f 77f
10:00pm 4 7 mph 1019.4mb 83f 78f
9:00pm 4
mph
1018.8mb 83f 79f
8:00pm 4
mph
1018.4mb 83f 79f
7:00pm 7
mph
1018.1mb 83f 79f
6:00pm 4
mph
1017.4mb 83f 79f
5:00pm 7 9 mph 1017.2mb 83f 80f
4:00pm 7 9 mph 1017.4mb 84f 80f
3:00pm 7
mph
1017.5mb 83f 80f
2:00pm 7
mph
1018.3mb 83f 80f